createdAt,value
2022-11-29T00:01:29.931Z,17.83
2022-11-29T00:03:56.580Z,16.00
2022-11-29T00:06:27.259Z,15.88
2022-11-29T00:09:04.657Z,15.75
2022-11-29T00:12:13.644Z,15.32
2022-11-29T00:14:41.740Z,14.88
2022-11-29T00:17:08.370Z,15.20
2022-11-29T00:19:36.353Z,16.25
2022-11-29T00:22:03.877Z,15.43
2022-11-29T00:24:32.327Z,15.50
2022-11-29T00:26:58.940Z,15.98
2022-11-29T00:29:25.340Z,16.50
2022-11-29T00:31:51.688Z,16.45
2022-11-29T00:34:18.131Z,18.40
2022-11-29T00:36:44.523Z,16.45
2022-11-29T00:39:12.107Z,17.08
2022-11-29T00:41:39.560Z,16.38
2022-11-29T00:44:06.047Z,16.15
2022-11-29T00:46:32.461Z,16.70
2022-11-29T00:48:58.853Z,16.08
2022-11-29T00:51:25.289Z,17.20
2022-11-29T00:53:51.675Z,16.38
2022-11-29T00:56:18.181Z,16.85
2022-11-29T00:58:44.690Z,17.42
2022-11-29T01:01:12.298Z,16.55
2022-11-29T01:03:38.784Z,16.90
2022-11-29T01:06:08.284Z,17.58
2022-11-29T01:08:35.484Z,17.60
2022-11-29T01:11:11.475Z,17.17
2022-11-29T01:13:38.135Z,17.73
2022-11-29T01:16:05.263Z,17.48
2022-11-29T01:18:32.633Z,21.88
2022-11-29T01:21:08.314Z,21.10
2022-11-29T01:23:35.872Z,20.08
2022-11-29T01:26:08.516Z,19.23
2022-11-29T01:28:38.059Z,18.83
2022-11-29T01:31:15.564Z,18.38
2022-11-29T01:33:44.568Z,17.48
2022-11-29T01:36:13.104Z,18.10
2022-11-29T01:38:39.490Z,17.15
2022-11-29T01:41:17.901Z,18.10
2022-11-29T01:43:55.075Z,18.38
2022-11-29T01:46:21.723Z,17.80
2022-11-29T01:48:49.121Z,17.63
2022-11-29T01:51:15.715Z,18.48
2022-11-29T01:53:42.288Z,17.15
2022-11-29T01:56:10.096Z,17.70
2022-11-29T01:58:41.431Z,18.20
2022-11-29T02:01:11.037Z,18.23
2022-11-29T02:03:37.561Z,18.27
2022-11-29T02:06:09.916Z,17.60
2022-11-29T02:08:42.017Z,17.70
2022-11-29T02:11:11.200Z,18.65
2022-11-29T02:13:49.423Z,17.65
2022-11-29T02:16:34.563Z,18.50
2022-11-29T02:19:18.021Z,19.08
2022-11-29T02:21:52.271Z,18.08
2022-11-29T02:25:03.385Z,18.60
2022-11-29T02:27:59.579Z,18.40
2022-11-29T02:30:53.491Z,17.95
2022-11-29T02:33:26.044Z,18.90
2022-11-29T02:36:01.488Z,18.40
2022-11-29T02:38:59.880Z,18.73
2022-11-29T02:41:50.001Z,19.00
2022-11-29T02:44:34.672Z,18.50
2022-11-29T02:47:19.225Z,18.98
2022-11-29T02:50:18.202Z,19.17
2022-11-29T02:53:05.976Z,18.98
2022-11-29T02:55:43.297Z,19.70
2022-11-29T02:58:25.159Z,19.15
2022-11-29T03:00:59.477Z,18.85
2022-11-29T03:03:38.890Z,18.98
2022-11-29T03:06:37.399Z,19.33
2022-11-29T03:09:13.393Z,20.15
2022-11-29T03:11:54.249Z,19.20
2022-11-29T03:14:27.084Z,20.10
2022-11-29T03:17:36.442Z,19.95
2022-11-29T03:20:21.359Z,18.95
2022-11-29T03:23:09.625Z,19.52
2022-11-29T03:28:13.486Z,19.67
2022-11-29T03:30:49.110Z,19.02
2022-11-29T03:33:31.823Z,18.95
2022-11-29T03:36:18.627Z,19.70
2022-11-29T03:38:47.344Z,20.95
2022-11-29T03:41:20.132Z,20.65
2022-11-29T03:43:57.225Z,20.95
2022-11-29T03:46:42.261Z,20.08
2022-11-29T03:49:20.784Z,20.88
2022-11-29T03:51:59.317Z,20.42
2022-11-29T03:54:31.238Z,19.33
2022-11-29T03:56:58.002Z,19.95
2022-11-29T03:59:35.055Z,19.25
2022-11-29T04:02:29.678Z,19.08
2022-11-29T04:05:17.927Z,18.77
2022-11-29T04:07:55.523Z,18.95
2022-11-29T04:10:49.452Z,19.30
2022-11-29T04:13:37.286Z,19.08
2022-11-29T04:16:25.529Z,18.55
2022-11-29T04:19:19.682Z,19.00
2022-11-29T04:22:05.539Z,19.00
2022-11-29T04:24:56.759Z,19.58
2022-11-29T04:27:38.841Z,19.33
2022-11-29T04:30:08.465Z,19.13
2022-11-29T04:32:53.359Z,19.33
2022-11-29T04:35:44.599Z,18.05
2022-11-29T04:38:37.924Z,20.15
2022-11-29T04:41:27.924Z,18.85
2022-11-29T04:44:03.384Z,18.75
2022-11-29T04:46:42.272Z,18.45
2022-11-29T04:49:37.957Z,18.20
2022-11-29T04:52:23.122Z,18.38
2022-11-29T04:54:59.872Z,18.50
2022-11-29T04:57:46.240Z,18.40
2022-11-29T05:00:20.481Z,18.08
2022-11-29T05:02:58.505Z,18.10
2022-11-29T05:05:35.507Z,18.50
2022-11-29T05:08:37.635Z,19.20
2022-11-29T05:11:28.755Z,18.15
2022-11-29T05:14:01.118Z,17.08
2022-11-29T05:16:53.741Z,18.38
2022-11-29T05:19:32.178Z,17.85
2022-11-29T05:22:19.849Z,17.92
2022-11-29T05:24:56.577Z,17.75
2022-11-29T05:27:47.210Z,18.20
2022-11-29T05:30:16.469Z,17.95
2022-11-29T05:33:20.708Z,17.80
2022-11-29T05:35:58.453Z,17.17
2022-11-29T05:38:46.221Z,17.58
2022-11-29T05:41:36.945Z,17.60
2022-11-29T05:44:12.586Z,17.83
2022-11-29T05:47:01.605Z,17.90
2022-11-29T05:49:47.122Z,17.15
2022-11-29T05:52:25.016Z,16.65
2022-11-29T05:55:10.355Z,17.42
2022-11-29T05:58:04.404Z,17.70
2022-11-29T06:00:44.316Z,17.08
2022-11-29T06:03:21.638Z,16.40
2022-11-29T06:05:56.659Z,16.15
2022-11-29T06:08:34.180Z,16.27
2022-11-29T06:11:05.765Z,16.25
2022-11-29T06:13:49.704Z,16.38
2022-11-29T06:16:46.222Z,15.60
2022-11-29T06:19:21.561Z,15.75
2022-11-29T06:22:09.968Z,15.10
2022-11-29T06:25:01.363Z,15.25
2022-11-29T06:27:45.793Z,14.60
2022-11-29T06:30:20.183Z,15.15
2022-11-29T06:32:57.803Z,15.48
2022-11-29T06:35:45.749Z,15.85
2022-11-29T06:38:20.509Z,15.60
2022-11-29T06:40:47.345Z,15.18
2022-11-29T06:43:14.019Z,15.80
2022-11-29T06:45:46.833Z,15.65
2022-11-29T06:48:26.101Z,16.88
2022-11-29T06:51:21.280Z,16.23
2022-11-29T06:54:01.840Z,16.05
2022-11-29T06:56:58.141Z,16.38
2022-11-29T06:59:48.696Z,15.98
2022-11-29T07:02:50.609Z,16.73
2022-11-29T07:05:35.296Z,16.92
2022-11-29T07:08:10.483Z,16.08
2022-11-29T07:10:39.607Z,15.80
2022-11-29T07:13:06.272Z,15.95
2022-11-29T07:15:33.207Z,15.98
2022-11-29T07:18:25.257Z,15.82
2022-11-29T07:21:24.105Z,16.48
2022-11-29T07:24:04.720Z,16.13
2022-11-29T07:26:59.746Z,15.98
2022-11-29T07:29:46.156Z,16.55
2022-11-29T07:32:29.295Z,16.15
2022-11-29T07:35:04.217Z,15.65
2022-11-29T07:38:04.448Z,16.17
2022-11-29T07:40:45.795Z,15.50
2022-11-29T07:43:18.127Z,15.20
2022-11-29T07:45:50.913Z,15.15
2022-11-29T07:48:17.758Z,14.95
2022-11-29T07:50:45.147Z,16.13
2022-11-29T07:53:17.253Z,15.70
2022-11-29T07:55:44.609Z,15.43
2022-11-29T07:58:15.610Z,15.73
2022-11-29T08:00:42.744Z,14.98
2022-11-29T08:03:10.595Z,19.92
2022-11-29T08:05:39.381Z,28.83
2022-11-29T08:08:06.157Z,15.30
2022-11-29T08:10:32.809Z,16.23
2022-11-29T08:12:59.166Z,19.08
2022-11-29T08:15:25.870Z,15.38
2022-11-29T08:17:53.191Z,14.93
2022-11-29T08:20:20.023Z,14.30
2022-11-29T08:22:57.672Z,14.88
2022-11-29T08:25:25.524Z,14.25
2022-11-29T08:27:52.033Z,13.90
2022-11-29T08:30:22.004Z,14.20
2022-11-29T08:32:51.539Z,25.65
2022-11-29T08:35:22.968Z,16.95
2022-11-29T08:37:49.788Z,13.82
2022-11-29T08:40:17.384Z,13.98
2022-11-29T08:42:43.751Z,13.02
2022-11-29T08:45:11.118Z,13.73
2022-11-29T08:47:38.362Z,13.60
2022-11-29T08:50:12.240Z,13.30
2022-11-29T08:53:00.440Z,12.90
2022-11-29T08:55:30.919Z,12.57
2022-11-29T08:58:03.229Z,12.30
2022-11-29T09:00:30.699Z,12.50
2022-11-29T09:03:17.034Z,11.80
2022-11-29T09:05:43.669Z,11.50
2022-11-29T09:08:10.544Z,12.40
2022-11-29T09:10:39.401Z,16.75
2022-11-29T09:13:06.848Z,16.67
2022-11-29T09:15:33.516Z,12.18
2022-11-29T09:17:59.931Z,12.00
2022-11-29T09:20:26.495Z,11.63
2022-11-29T09:22:52.842Z,11.88
2022-11-29T09:25:19.234Z,11.85
2022-11-29T09:27:45.589Z,11.82
2022-11-29T09:30:12.309Z,11.15
2022-11-29T09:32:38.681Z,12.00
2022-11-29T09:35:05.367Z,12.07
2022-11-29T09:37:31.731Z,12.98
2022-11-29T09:39:58.089Z,13.25
2022-11-29T09:42:52.609Z,11.60
2022-11-29T09:48:30.979Z,10.82
2022-11-29T09:51:04.217Z,10.65
2022-11-29T09:53:49.187Z,11.05
2022-11-29T09:56:28.433Z,10.98
2022-11-29T09:59:01.831Z,11.02
2022-11-29T10:01:32.517Z,11.45
2022-11-29T10:04:05.203Z,10.80
2022-11-29T10:06:38.903Z,10.70
2022-11-29T10:09:20.495Z,10.02
2022-11-29T10:11:52.635Z,11.40
2022-11-29T10:14:31.988Z,17.00
2022-11-29T10:17:24.828Z,10.35
2022-11-29T10:19:55.017Z,11.10
2022-11-29T10:22:40.861Z,10.80
2022-11-29T10:25:10.480Z,10.02
2022-11-29T10:27:40.207Z,10.18
2022-11-29T10:32:39.588Z,10.57
2022-11-29T10:35:13.338Z,10.20
2022-11-29T10:37:40.028Z,10.65
2022-11-29T10:40:19.181Z,10.45
2022-11-29T10:42:48.645Z,12.25
2022-11-29T10:45:26.244Z,10.35
2022-11-29T10:47:58.009Z,10.80
2022-11-29T10:50:27.672Z,11.85
2022-11-29T10:53:12.986Z,10.80
2022-11-29T10:55:45.813Z,11.30
2022-11-29T10:58:27.925Z,11.77
2022-11-29T11:00:58.024Z,11.35
2022-11-29T11:03:35.438Z,11.60
2022-11-29T11:06:17.355Z,11.27
2022-11-29T11:08:48.381Z,11.52
2022-11-29T11:11:24.720Z,11.50
2022-11-29T11:14:23.032Z,12.30
2022-11-29T11:16:49.958Z,12.20
2022-11-29T11:19:32.026Z,10.98
2022-11-29T11:22:00.988Z,11.85
2022-11-29T11:24:33.192Z,12.15
2022-11-29T11:27:00.722Z,11.70
2022-11-29T11:29:39.550Z,12.45
2022-11-29T11:32:16.457Z,11.68
2022-11-29T11:34:54.705Z,12.68
2022-11-29T11:37:31.441Z,11.77
2022-11-29T11:40:01.334Z,11.98
2022-11-29T11:42:38.309Z,12.15
2022-11-29T11:45:10.727Z,12.82
2022-11-29T11:47:46.520Z,12.50
2022-11-29T11:50:16.660Z,12.65
2022-11-29T11:52:53.386Z,11.85
2022-11-29T11:55:36.412Z,12.85
2022-11-29T11:58:10.627Z,12.30
2022-11-29T12:03:36.977Z,11.70
2022-11-29T12:06:11.952Z,12.13
2022-11-29T12:08:39.558Z,12.13
2022-11-29T12:11:10.679Z,11.98
2022-11-29T12:13:44.155Z,12.02
2022-11-29T12:16:16.492Z,12.30
2022-11-29T12:18:48.922Z,11.73
2022-11-29T12:21:17.657Z,11.23
2022-11-29T12:23:49.549Z,11.60
2022-11-29T12:26:55.361Z,11.70
2022-11-29T12:29:14.637Z,11.82
2022-11-29T12:31:58.456Z,11.60
2022-11-29T12:34:43.478Z,11.98
2022-11-29T12:37:25.627Z,12.40
2022-11-29T12:40:19.872Z,11.70
2022-11-29T12:42:57.149Z,12.98
2022-11-29T12:45:33.683Z,13.00
2022-11-29T12:48:10.123Z,13.77
2022-11-29T12:50:59.275Z,13.88
2022-11-29T12:53:27.436Z,13.25
2022-11-29T12:56:13.553Z,13.73
2022-11-29T12:58:49.012Z,13.23
2022-11-29T13:01:29.148Z,12.63
2022-11-29T13:04:14.262Z,12.90
2022-11-29T13:06:49.326Z,12.70
2022-11-29T13:09:15.671Z,12.88
2022-11-29T13:12:11.326Z,12.82
2022-11-29T13:14:54.322Z,12.63
2022-11-29T13:17:47.090Z,12.55
2022-11-29T13:20:25.382Z,18.77
2022-11-29T13:23:01.339Z,16.00
2022-11-29T13:25:35.130Z,12.88
2022-11-29T13:28:11.035Z,13.05
2022-11-29T13:33:19.875Z,13.38
2022-11-29T13:35:46.269Z,13.20
2022-11-29T13:38:24.683Z,13.32
2022-11-29T13:40:58.188Z,13.68
2022-11-29T13:43:38.294Z,13.80
2022-11-29T13:46:14.206Z,14.95
2022-11-29T13:51:28.068Z,13.90
2022-11-29T13:53:56.419Z,14.90
2022-11-29T13:56:46.632Z,15.10
2022-11-29T13:59:24.203Z,14.88
2022-11-29T14:01:53.745Z,15.18
2022-11-29T14:06:48.307Z,15.30
2022-11-29T14:09:33.504Z,15.65
2022-11-29T14:12:17.673Z,16.48
2022-11-29T14:15:06.011Z,15.48
2022-11-29T14:20:22.192Z,15.13
2022-11-29T14:25:52.416Z,14.18
2022-11-29T14:28:21.776Z,15.95
2022-11-29T14:31:01.899Z,14.82
2022-11-29T14:33:33.611Z,15.60
2022-11-29T14:36:15.298Z,14.98
2022-11-29T14:38:52.344Z,15.57
2022-11-29T14:41:33.011Z,16.10
2022-11-29T14:44:30.781Z,15.95
2022-11-29T14:47:06.737Z,15.93
2022-11-29T14:49:44.344Z,20.25
2022-11-29T14:52:13.693Z,16.92
2022-11-29T14:54:59.730Z,15.93
2022-11-29T14:57:44.726Z,14.43
2022-11-29T15:00:12.556Z,14.75
2022-11-29T15:02:44.257Z,14.63
2022-11-29T15:05:13.448Z,15.30
2022-11-29T15:07:46.886Z,15.57
2022-11-29T15:10:21.068Z,15.02
2022-11-29T15:12:49.424Z,15.48
2022-11-29T15:15:28.077Z,15.73
2022-11-29T15:18:11.459Z,15.02
2022-11-29T15:21:00.730Z,15.65
2022-11-29T15:23:27.101Z,15.60
2022-11-29T15:25:59.576Z,16.40
2022-11-29T15:28:28.764Z,15.63
2022-11-29T15:31:07.901Z,15.18
2022-11-29T15:33:37.127Z,15.40
2022-11-29T15:36:06.999Z,15.13
2022-11-29T15:38:51.855Z,16.02
2022-11-29T15:41:28.597Z,15.93
2022-11-29T15:44:04.481Z,33.25
2022-11-29T15:46:32.877Z,16.55
2022-11-29T15:49:17.953Z,16.02
2022-11-29T15:51:48.445Z,15.75
2022-11-29T15:54:23.644Z,15.15
2022-11-29T15:57:04.008Z,16.20
2022-11-29T15:59:51.619Z,15.63
2022-11-29T16:02:25.869Z,16.45
2022-11-29T16:04:57.042Z,16.33
2022-11-29T16:07:25.911Z,15.73
2022-11-29T16:09:59.838Z,20.25
2022-11-29T16:12:26.413Z,18.17
2022-11-29T16:14:58.512Z,15.55
2022-11-29T16:17:27.151Z,16.75
2022-11-29T16:20:13.413Z,15.77
2022-11-29T16:22:40.104Z,16.08
2022-11-29T16:25:15.491Z,15.95
2022-11-29T16:27:42.651Z,14.98
2022-11-29T16:30:24.607Z,16.25
2022-11-29T16:32:59.165Z,15.43
2022-11-29T16:35:33.672Z,16.35
2022-11-29T16:38:04.409Z,17.17
2022-11-29T16:40:33.097Z,16.42
2022-11-29T16:43:20.094Z,15.45
2022-11-29T16:45:46.929Z,16.65
2022-11-29T16:48:22.542Z,15.85
2022-11-29T16:51:20.323Z,18.05
2022-11-29T16:53:53.057Z,17.45
2022-11-29T16:56:23.554Z,17.05
2022-11-29T16:59:20.929Z,17.60
2022-11-29T17:01:40.460Z,32.40
2022-11-29T17:04:09.026Z,18.45
2022-11-29T17:06:35.929Z,17.95
2022-11-29T17:09:02.652Z,18.05
2022-11-29T17:11:29.050Z,17.33
2022-11-29T17:13:55.388Z,17.55
2022-11-29T17:16:23.632Z,17.20
2022-11-29T17:18:52.635Z,17.85
2022-11-29T17:21:25.304Z,17.75
2022-11-29T17:23:53.038Z,17.80
2022-11-29T17:26:20.610Z,17.27
2022-11-29T17:28:48.366Z,17.27
2022-11-29T17:31:23.181Z,17.85
2022-11-29T17:33:50.460Z,17.08
2022-11-29T17:36:19.603Z,19.75
2022-11-29T17:38:46.614Z,22.58
2022-11-29T17:41:16.645Z,17.63
2022-11-29T17:43:43.048Z,18.17
2022-11-29T17:46:14.318Z,17.38
2022-11-29T17:48:41.167Z,19.00
2022-11-29T17:51:22.875Z,16.92
2022-11-29T17:53:55.504Z,17.13
2022-11-29T17:56:24.640Z,17.13
2022-11-29T17:58:52.809Z,17.55
2022-11-29T18:01:21.805Z,17.35
2022-11-29T18:03:51.180Z,18.13
2022-11-29T18:06:20.166Z,17.50
2022-11-29T18:08:48.745Z,20.15
2022-11-29T18:11:21.404Z,18.65
2022-11-29T18:13:48.694Z,18.98
2022-11-29T18:16:20.754Z,21.77
2022-11-29T18:18:47.649Z,23.00
2022-11-29T18:21:14.399Z,27.63
2022-11-29T18:23:42.639Z,20.70
2022-11-29T18:26:12.710Z,20.02
2022-11-29T18:28:40.429Z,22.23
2022-11-29T18:31:28.151Z,17.73
2022-11-29T18:33:57.466Z,17.63
2022-11-29T18:36:26.202Z,17.73
2022-11-29T18:38:57.536Z,18.80
2022-11-29T18:41:24.843Z,18.35
2022-11-29T18:44:03.520Z,16.98
2022-11-29T18:46:32.637Z,17.55
2022-11-29T18:49:00.999Z,17.83
2022-11-29T18:51:29.278Z,18.08
2022-11-29T18:53:56.528Z,17.25
2022-11-29T18:56:24.771Z,17.20
2022-11-29T18:59:00.196Z,30.15
2022-11-29T19:01:29.332Z,27.85
2022-11-29T19:03:58.330Z,17.73
2022-11-29T19:06:39.366Z,17.42
2022-11-29T19:09:09.601Z,17.90
2022-11-29T19:11:35.979Z,17.73
2022-11-29T19:14:11.295Z,17.48
2022-11-29T19:16:40.341Z,18.48
2022-11-29T19:19:07.036Z,17.83
2022-11-29T19:21:34.556Z,18.70
2022-11-29T19:24:03.794Z,18.52
2022-11-29T19:26:31.563Z,17.70
2022-11-29T19:29:00.225Z,17.67
2022-11-29T19:31:27.389Z,18.45
2022-11-29T19:33:54.801Z,18.15
2022-11-29T19:36:26.768Z,19.20
2022-11-29T19:38:54.561Z,18.92
2022-11-29T19:41:29.778Z,18.98
2022-11-29T19:43:57.605Z,19.42
2022-11-29T19:46:26.883Z,18.75
2022-11-29T19:48:54.953Z,18.77
2022-11-29T19:51:22.687Z,18.92
2022-11-29T19:53:53.083Z,19.05
2022-11-29T19:56:20.459Z,18.65
2022-11-29T19:58:47.291Z,18.90
2022-11-29T20:01:22.898Z,19.40
2022-11-29T20:03:49.722Z,19.85
2022-11-29T20:06:16.868Z,19.67
2022-11-29T20:08:44.570Z,19.40
2022-11-29T20:11:13.980Z,21.70
2022-11-29T20:13:42.344Z,21.35
2022-11-29T20:16:11.952Z,19.95
2022-11-29T20:18:43.539Z,32.33
2022-11-29T20:21:15.616Z,20.52
2022-11-29T20:23:43.018Z,20.15
2022-11-29T20:26:17.935Z,20.05
2022-11-29T20:28:44.816Z,19.38
2022-11-29T20:31:13.934Z,19.60
2022-11-29T20:33:41.952Z,19.40
2022-11-29T20:36:38.352Z,19.52
2022-11-29T20:39:25.787Z,18.83
2022-11-29T20:42:23.147Z,19.42
2022-11-29T20:44:57.832Z,20.08
2022-11-29T20:47:27.181Z,20.48
2022-11-29T20:49:54.197Z,19.52
2022-11-29T20:52:42.271Z,19.80
2022-11-29T20:55:09.250Z,20.50
2022-11-29T20:57:38.215Z,19.98
2022-11-29T21:00:07.284Z,19.50
2022-11-29T21:02:33.681Z,19.80
2022-11-29T21:05:00.084Z,19.98
2022-11-29T21:07:26.479Z,19.30
2022-11-29T21:09:56.672Z,19.30
2022-11-29T21:12:27.832Z,20.05
2022-11-29T21:14:54.525Z,19.33
2022-11-29T21:17:21.217Z,19.75
2022-11-29T21:19:47.846Z,19.77
2022-11-29T21:22:23.377Z,20.25
2022-11-29T21:25:25.235Z,19.35
2022-11-29T21:27:52.615Z,18.85
2022-11-29T21:30:22.088Z,19.17
2022-11-29T21:32:49.213Z,19.10
2022-11-29T21:35:15.913Z,19.60
2022-11-29T21:37:43.154Z,19.63
2022-11-29T21:40:10.909Z,18.63
2022-11-29T21:42:37.908Z,18.35
2022-11-29T21:45:08.188Z,18.73
2022-11-29T21:47:39.719Z,18.27
2022-11-29T21:50:06.869Z,18.48
2022-11-29T21:52:33.361Z,19.95
2022-11-29T21:54:59.732Z,22.58
2022-11-29T21:57:26.135Z,19.38
2022-11-29T21:59:52.983Z,21.08
2022-11-29T22:02:19.466Z,24.10
2022-11-29T22:04:46.065Z,19.75
2022-11-29T22:07:12.660Z,19.75
2022-11-29T22:09:39.029Z,21.00
2022-11-29T22:12:25.800Z,21.10
2022-11-29T22:14:52.111Z,20.88
2022-11-29T22:17:18.477Z,18.45
2022-11-29T22:19:44.832Z,19.67
2022-11-29T22:22:11.249Z,18.50
2022-11-29T22:24:37.850Z,20.73
2022-11-29T22:27:04.399Z,18.42
2022-11-29T22:29:30.908Z,19.67
2022-11-29T22:31:59.146Z,20.45
2022-11-29T22:34:27.086Z,19.75
2022-11-29T22:36:53.716Z,21.75
2022-11-29T22:39:20.072Z,22.85
2022-11-29T22:41:50.802Z,20.08
2022-11-29T22:44:20.617Z,18.77
2022-11-29T22:46:46.989Z,17.63
2022-11-29T22:49:13.421Z,18.50
2022-11-29T22:51:39.929Z,18.23
2022-11-29T22:54:08.980Z,19.23
2022-11-29T22:56:38.165Z,18.33
2022-11-29T22:59:05.427Z,18.83
2022-11-29T23:01:34.677Z,19.85
2022-11-29T23:04:03.947Z,19.33
2022-11-29T23:06:32.917Z,17.38
2022-11-29T23:09:05.257Z,17.13
2022-11-29T23:11:32.186Z,17.08
2022-11-29T23:13:58.571Z,17.55
2022-11-29T23:16:27.977Z,17.30
2022-11-29T23:18:56.392Z,17.80
2022-11-29T23:21:29.405Z,16.85
2022-11-29T23:23:57.015Z,17.63
2022-11-29T23:26:39.633Z,16.35
2022-11-29T23:29:08.393Z,17.20
2022-11-29T23:31:34.946Z,15.90
2022-11-29T23:34:02.239Z,16.38
2022-11-29T23:36:28.937Z,18.13
2022-11-29T23:38:55.279Z,16.85
2022-11-29T23:41:21.651Z,17.08
2022-11-29T23:43:47.995Z,16.23
2022-11-29T23:46:16.744Z,17.63
2022-11-29T23:48:43.872Z,17.08
2022-11-29T23:51:10.912Z,16.92
2022-11-29T23:53:37.578Z,17.17
2022-11-29T23:56:11.370Z,17.40
2022-11-29T23:58:38.082Z,17.85
